Bronx, NY (10451)

8:11 PM EDT on April 29, 2017 (GMT -0400)
ICS, Bronx | | Change Station

Elev 165 ft 40.82 °N, 73.92 °W | Updated 26 seconds ago

Partly Cloudy
Partly Cloudy
79.3 °F
Feels Like 80 °F
N
6.0
Wind Variable Wind from NW
Gusts 12.3 mph

Today
High -- | Low -- °F
--% Chance of Precip.
Yesterday
High -- | Low -- °F
Precip. -- in
Pressure 30.00 in
Visibility 10.0 miles
Clouds Few 5000 ft
Scattered Clouds 20000 ft
Mostly Cloudy 25000 ft
Heat Index 80 °F
Dew Point 56 °F
Humidity 45%
Rainfall 0.04 in
Snow Depth Not available.
5:56 AM 7:50 PM
Waxing Crescent, 17% visible
METAR KLGA 292351Z 29011G18KT 10SM FEW050 SCT200 BKN250 27/13 A2999 RMK AO2 PK WND 30026/2315 SLP157 T02720133 10311 20272 53009
Pressure 30.00 in
Visibility 10.0 miles
Clouds Few 5000 ft
Scattered Clouds 20000 ft
Mostly Cloudy 25000 ft
Heat Index 80 °F
Dew Point 56 °F
Humidity 45%
Rainfall 0.04 in
Snow Depth Not available.
5:56 AM 7:50 PM
Waxing Crescent, 17% visible
METAR KLGA 292351Z 29011G18KT 10SM FEW050 SCT200 BKN250 27/13 A2999 RMK AO2 PK WND 30026/2315 SLP157 T02720133 10311 20272 53009

Get Severe Weather Alerts

Thanks for signing up!

Be on the lookout for a verification email in your inbox.

You'll start receiving the daily forecast at 8 AM.

×

10-Day Weather Forecast

Almanac

Astronomy

Apr. 29, 2017 Rise Set
Actual Time
Civil Twilight
Nautical Twilight
Astronomical Twilight
Moon
Length of Visible Light
Length of Day
Tomorrow will be .
, % of the Moon is Illuminated

Today's Extremes

State Highs State Lows

Community

WunderPhotos

WunderBlog® & News

Nearby

Air Quality

  Air Quality AQ Index Pollutant
Not available.

Snow Depth

Station Depth Elevation

Earthquake Activity

City Distance Mag. Time & Date
Minimum magnitude displayed is 2.5.

Coastal Water Temperatures

Place Temperature

Stations

Nearby Weather Stations

Station Location Temp. Windchill Dew Point Humidity Wind Precip. Elev Updated Type
                   

Watches & Warnings

There are currently no watches in effect.